createdAt,value
2022-09-13T00:00:09.545Z,11.28
2022-09-13T00:03:13.013Z,11.25
2022-09-13T00:06:19.051Z,11.23
2022-09-13T00:09:21.845Z,11.24
2022-09-13T00:12:24.441Z,11.17
2022-09-13T00:15:28.194Z,11.12
2022-09-13T00:18:31.022Z,11.08
2022-09-13T00:21:33.889Z,11.03
2022-09-13T00:24:37.316Z,11.02
2022-09-13T00:27:40.486Z,11.02
2022-09-13T00:30:43.009Z,11.05
2022-09-13T00:33:45.789Z,10.98
2022-09-13T00:36:48.206Z,10.96
2022-09-13T00:39:50.974Z,10.93
2022-09-13T00:42:53.424Z,10.92
2022-09-13T00:45:56.579Z,10.90
2022-09-13T00:49:24.652Z,10.92
2022-09-13T00:52:29.197Z,10.86
2022-09-13T00:55:35.090Z,10.84
2022-09-13T00:58:44.160Z,10.84
2022-09-13T01:01:54.667Z,10.78
2022-09-13T01:04:57.454Z,10.85
2022-09-13T01:08:00.913Z,11.02
2022-09-13T01:11:06.759Z,11.14
2022-09-13T01:14:10.149Z,11.05
2022-09-13T01:17:13.159Z,11.12
2022-09-13T01:20:15.972Z,11.13
2022-09-13T01:23:52.706Z,11.16
2022-09-13T01:27:01.203Z,11.32
2022-09-13T01:30:11.672Z,11.07
2022-09-13T01:34:03.286Z,10.94
2022-09-13T01:37:08.701Z,10.74
2022-09-13T01:40:11.131Z,10.64
2022-09-13T01:43:42.938Z,10.51
2022-09-13T01:46:45.441Z,10.52
2022-09-13T01:50:00.488Z,10.45
2022-09-13T01:53:10.441Z,10.33
2022-09-13T01:56:58.232Z,10.24
2022-09-13T02:00:15.473Z,10.16
2022-09-13T02:03:23.945Z,10.07
2022-09-13T02:06:30.986Z,10.12
2022-09-13T02:09:40.763Z,10.08
2022-09-13T02:12:46.832Z,10.07
2022-09-13T02:15:54.798Z,10.08
2022-09-13T02:19:09.344Z,10.04
2022-09-13T02:22:15.482Z,10.10
2022-09-13T02:25:21.923Z,10.18
2022-09-13T02:28:32.872Z,10.17
2022-09-13T02:31:43.842Z,10.09
2022-09-13T02:34:52.550Z,10.02
2022-09-13T02:38:03.028Z,9.95
2022-09-13T02:41:22.163Z,9.84
2022-09-13T02:44:36.376Z,9.80
2022-09-13T02:47:45.632Z,9.88
2022-09-13T02:51:07.527Z,9.79
2022-09-13T02:54:24.063Z,9.87
2022-09-13T02:57:39.262Z,9.83
2022-09-13T03:00:42.431Z,9.70
2022-09-13T03:03:45.403Z,9.60
2022-09-13T03:06:49.945Z,9.53
2022-09-13T03:09:57.754Z,9.51
2022-09-13T03:13:35.008Z,9.49
2022-09-13T03:16:59.149Z,9.47
2022-09-13T03:20:14.518Z,9.41
2022-09-13T03:23:41.984Z,9.36
2022-09-13T03:27:09.332Z,9.34
2022-09-13T03:30:14.346Z,9.34
2022-09-13T03:33:29.951Z,9.27
2022-09-13T03:36:47.704Z,9.25
2022-09-13T03:40:00.367Z,9.25
2022-09-13T03:43:12.461Z,9.18
2022-09-13T03:46:24.700Z,9.15
2022-09-13T03:49:29.096Z,9.19
2022-09-13T03:52:31.925Z,9.14
2022-09-13T03:55:40.273Z,9.14
2022-09-13T03:58:43.973Z,9.19
2022-09-13T04:01:46.688Z,9.11
2022-09-13T04:04:49.768Z,9.08
2022-09-13T04:07:52.306Z,9.06
2022-09-13T04:10:55.117Z,9.07
2022-09-13T04:13:58.335Z,9.08
2022-09-13T04:17:01.193Z,9.05
2022-09-13T04:20:05.485Z,9.02
2022-09-13T04:23:08.393Z,9.03
2022-09-13T04:26:10.882Z,8.98
2022-09-13T04:29:13.690Z,9.00
2022-09-13T04:32:16.204Z,9.00
2022-09-13T04:35:19.741Z,8.98
2022-09-13T04:38:22.239Z,9.02
2022-09-13T04:41:25.019Z,9.07
2022-09-13T04:44:27.900Z,9.12
2022-09-13T04:47:30.989Z,9.17
2022-09-13T04:50:33.495Z,9.22
2022-09-13T04:53:36.700Z,9.28
2022-09-13T04:56:39.188Z,9.44
2022-09-13T04:59:41.978Z,9.59
2022-09-13T05:02:44.548Z,9.71
2022-09-13T05:05:47.359Z,9.79
2022-09-13T05:08:55.577Z,9.91
2022-09-13T05:11:58.328Z,10.01
2022-09-13T05:15:00.922Z,10.04
2022-09-13T05:18:03.835Z,10.37
2022-09-13T05:21:06.470Z,10.35
2022-09-13T05:24:09.646Z,10.46
2022-09-13T05:27:12.242Z,10.64
2022-09-13T05:30:15.175Z,10.69
2022-09-13T05:33:17.624Z,10.87
2022-09-13T05:36:20.596Z,10.90
2022-09-13T05:39:39.833Z,10.96
2022-09-13T05:42:45.917Z,11.08
2022-09-13T05:45:48.396Z,11.18
2022-09-13T05:48:51.211Z,11.17
2022-09-13T05:51:53.643Z,11.22
2022-09-13T05:54:59.222Z,11.33
2022-09-13T05:58:03.037Z,11.31
2022-09-13T06:01:06.480Z,11.50
2022-09-13T06:04:09.347Z,11.59
2022-09-13T06:07:12.441Z,11.82
2022-09-13T06:10:15.207Z,11.95
2022-09-13T06:13:17.716Z,12.07
2022-09-13T06:16:21.245Z,12.14
2022-09-13T06:19:24.342Z,12.26
2022-09-13T06:22:33.069Z,12.44
2022-09-13T06:25:35.649Z,12.78
2022-09-13T06:28:38.957Z,13.18
2022-09-13T06:31:44.913Z,13.66
2022-09-13T06:34:48.288Z,14.09
2022-09-13T06:37:51.295Z,14.88
2022-09-13T06:41:08.014Z,15.14
2022-09-13T06:44:10.510Z,16.62
2022-09-13T06:47:13.350Z,17.72
2022-09-13T06:50:15.936Z,18.27
2022-09-13T06:53:18.860Z,19.14
2022-09-13T06:56:24.006Z,19.75
2022-09-13T06:59:27.056Z,20.47
2022-09-13T07:02:29.582Z,20.90
2022-09-13T07:05:32.327Z,21.50
2022-09-13T07:08:34.865Z,21.40
2022-09-13T07:11:40.093Z,20.29
2022-09-13T07:14:42.501Z,21.83
2022-09-13T07:17:45.358Z,21.33
2022-09-13T07:20:47.951Z,22.00
2022-09-13T07:23:52.686Z,22.69
2022-09-13T07:26:55.490Z,21.95
2022-09-13T07:29:58.652Z,22.33
2022-09-13T07:33:01.268Z,22.69
2022-09-13T07:36:06.681Z,23.39
2022-09-13T07:39:14.414Z,23.63
2022-09-13T07:42:18.299Z,23.87
2022-09-13T07:45:22.073Z,23.68
2022-09-13T07:48:27.221Z,24.14
2022-09-13T07:51:33.641Z,23.73
2022-09-13T07:54:38.134Z,24.08
2022-09-13T07:57:40.591Z,24.44
2022-09-13T08:00:43.439Z,24.78
2022-09-13T08:03:52.510Z,25.65
2022-09-13T08:06:55.900Z,25.66
2022-09-13T08:09:58.965Z,25.26
2022-09-13T08:13:01.672Z,23.74
2022-09-13T08:16:06.986Z,24.99
2022-09-13T08:19:13.201Z,25.60
2022-09-13T08:22:15.999Z,25.91
2022-09-13T08:25:18.409Z,25.01
2022-09-13T08:28:27.327Z,25.00
2022-09-13T08:31:30.574Z,25.81
2022-09-13T08:34:33.230Z,26.36
2022-09-13T08:37:35.827Z,27.10
2022-09-13T08:40:42.721Z,26.00
2022-09-13T08:43:50.943Z,26.59
2022-09-13T08:47:38.322Z,26.68
2022-09-13T08:50:42.381Z,27.64
2022-09-13T08:53:48.759Z,28.16
2022-09-13T08:57:07.741Z,26.04
2022-09-13T09:00:21.157Z,24.20
2022-09-13T09:03:57.053Z,22.73
2022-09-13T09:07:26.221Z,21.64
2022-09-13T09:10:41.144Z,20.80
2022-09-13T09:13:54.887Z,20.05
2022-09-13T09:17:22.181Z,19.83
2022-09-13T09:20:32.308Z,19.58
2022-09-13T09:23:41.548Z,19.14
2022-09-13T09:26:44.256Z,19.08
2022-09-13T09:29:50.822Z,19.34
2022-09-13T09:33:11.560Z,19.47
2022-09-13T09:36:32.369Z,19.28
2022-09-13T09:39:39.070Z,19.31
2022-09-13T09:42:47.245Z,19.53
2022-09-13T09:45:53.945Z,19.46
2022-09-13T09:49:35.286Z,19.69
2022-09-13T09:52:58.356Z,19.53
2022-09-13T09:56:21.692Z,19.94
2022-09-13T09:59:31.278Z,20.06
2022-09-13T10:02:36.953Z,20.06
2022-09-13T10:05:39.966Z,19.89
2022-09-13T10:08:48.627Z,20.45
2022-09-13T10:11:58.248Z,20.57
2022-09-13T10:15:22.533Z,20.70
2022-09-13T10:18:44.895Z,21.11
2022-09-13T10:22:04.068Z,21.26
2022-09-13T10:25:23.017Z,21.37
2022-09-13T10:28:26.744Z,21.57
2022-09-13T10:31:34.901Z,21.00
2022-09-13T10:34:37.720Z,21.38
2022-09-13T10:37:44.186Z,21.61
2022-09-13T10:40:48.610Z,21.55
2022-09-13T10:44:00.482Z,21.56
2022-09-13T10:47:13.389Z,21.62
2022-09-13T10:50:22.469Z,22.47
2022-09-13T10:53:35.996Z,24.02
2022-09-13T10:56:38.996Z,25.88
2022-09-13T10:59:41.965Z,26.62
2022-09-13T11:03:06.928Z,27.20
2022-09-13T11:06:33.908Z,28.13
2022-09-13T11:09:46.714Z,29.30
2022-09-13T11:12:58.428Z,29.06
2022-09-13T11:16:07.123Z,29.07
2022-09-13T11:19:30.652Z,28.95
2022-09-13T11:22:58.069Z,28.79
2022-09-13T11:26:17.362Z,28.56
2022-09-13T11:29:52.411Z,30.61
2022-09-13T11:33:19.553Z,31.97
2022-09-13T11:36:46.083Z,31.12
2022-09-13T11:40:10.463Z,31.60
2022-09-13T11:43:44.718Z,32.05
2022-09-13T11:46:56.284Z,33.58
2022-09-13T11:50:18.170Z,33.15
2022-09-13T11:53:36.035Z,33.42
2022-09-13T11:56:44.738Z,34.08
2022-09-13T11:59:53.658Z,33.31
2022-09-13T12:03:17.656Z,33.62
2022-09-13T12:06:31.343Z,33.38
2022-09-13T12:09:51.486Z,31.65
2022-09-13T12:12:56.836Z,29.08
2022-09-13T12:16:05.354Z,28.79
2022-09-13T12:19:14.296Z,29.57
2022-09-13T12:22:18.763Z,29.59
2022-09-13T12:25:32.151Z,29.43
2022-09-13T12:28:42.374Z,27.34
2022-09-13T12:31:45.411Z,28.26
2022-09-13T12:34:54.940Z,29.56
2022-09-13T12:38:34.360Z,30.39
2022-09-13T12:41:42.884Z,28.66
2022-09-13T12:44:56.129Z,29.79
2022-09-13T12:48:13.933Z,29.07
2022-09-13T12:51:35.217Z,29.41
2022-09-13T12:54:43.484Z,27.60
2022-09-13T12:58:04.153Z,26.43
2022-09-13T13:01:28.912Z,26.12
2022-09-13T13:04:37.138Z,24.96
2022-09-13T13:07:40.255Z,24.27
2022-09-13T13:10:43.635Z,25.84
2022-09-13T13:13:55.630Z,29.36
2022-09-13T13:17:36.196Z,30.23
2022-09-13T13:20:53.986Z,31.99
2022-09-13T13:24:16.245Z,33.56
2022-09-13T13:27:38.089Z,36.86
2022-09-13T13:30:53.986Z,38.67
2022-09-13T13:34:14.802Z,36.91
2022-09-13T13:37:20.259Z,35.88
2022-09-13T13:40:25.848Z,35.67
2022-09-13T13:43:33.715Z,35.40
2022-09-13T13:46:36.238Z,34.62
2022-09-13T13:49:39.129Z,34.57
2022-09-13T13:53:18.690Z,36.80
2022-09-13T13:56:21.381Z,34.98
2022-09-13T13:59:32.891Z,37.43
2022-09-13T14:03:10.885Z,36.15
2022-09-13T14:06:49.896Z,35.77
2022-09-13T14:10:14.519Z,34.55
2022-09-13T14:13:41.307Z,33.11
2022-09-13T14:17:20.408Z,28.69
2022-09-13T14:20:25.613Z,25.28
2022-09-13T14:23:28.485Z,26.14
2022-09-13T14:26:31.337Z,24.77
2022-09-13T14:29:33.966Z,23.48
2022-09-13T14:32:47.736Z,23.36
2022-09-13T14:35:59.087Z,23.38
2022-09-13T14:39:01.932Z,23.16
2022-09-13T14:42:15.642Z,22.89
2022-09-13T14:45:35.670Z,22.78
2022-09-13T14:48:46.437Z,22.70
2022-09-13T14:51:55.589Z,22.81
2022-09-13T14:55:09.846Z,22.76
2022-09-13T14:58:21.740Z,22.76
2022-09-13T15:01:31.466Z,22.54
2022-09-13T15:04:34.414Z,22.40
2022-09-13T15:07:38.659Z,22.17
2022-09-13T15:10:45.378Z,22.13
2022-09-13T15:14:21.267Z,21.94
2022-09-13T15:17:24.013Z,21.92
2022-09-13T15:20:30.548Z,21.84
2022-09-13T15:23:39.413Z,21.65
2022-09-13T15:26:41.951Z,21.43
2022-09-13T15:29:54.413Z,21.35
2022-09-13T15:33:09.805Z,21.47
2022-09-13T15:36:18.650Z,21.58
2022-09-13T15:39:21.769Z,21.59
2022-09-13T15:42:24.515Z,21.59
2022-09-13T15:45:27.029Z,21.63
2022-09-13T15:48:32.739Z,21.65
2022-09-13T15:51:39.060Z,21.82
2022-09-13T15:54:42.724Z,21.89
2022-09-13T15:57:46.144Z,21.92
2022-09-13T16:00:49.057Z,21.79
2022-09-13T16:03:52.007Z,21.71
2022-09-13T16:06:54.440Z,21.63
2022-09-13T16:09:57.420Z,21.57
2022-09-13T16:12:59.862Z,21.45
2022-09-13T16:16:07.419Z,21.40
2022-09-13T16:19:21.564Z,21.29
2022-09-13T16:22:24.698Z,21.30
2022-09-13T16:25:27.284Z,21.20
2022-09-13T16:28:31.102Z,21.15
2022-09-13T16:31:34.081Z,21.15
2022-09-13T16:34:36.861Z,21.07
2022-09-13T16:37:41.109Z,20.99
2022-09-13T16:40:45.065Z,20.91
2022-09-13T16:43:47.690Z,20.86
2022-09-13T16:46:50.623Z,20.80
2022-09-13T16:49:53.403Z,20.73
2022-09-13T16:52:56.136Z,20.62
2022-09-13T16:56:09.947Z,20.59
2022-09-13T16:59:12.749Z,20.54
2022-09-13T17:02:15.507Z,20.33
2022-09-13T17:05:18.442Z,20.37
2022-09-13T17:08:21.527Z,20.32
2022-09-13T17:11:26.308Z,20.31
2022-09-13T17:14:29.813Z,20.14
2022-09-13T17:17:36.374Z,19.87
2022-09-13T17:20:47.443Z,19.58
2022-09-13T17:23:50.715Z,19.30
2022-09-13T17:26:54.467Z,19.06
2022-09-13T17:29:57.263Z,18.87
2022-09-13T17:33:00.045Z,18.74
2022-09-13T17:36:08.406Z,18.65
2022-09-13T17:39:12.790Z,18.51
2022-09-13T17:42:16.699Z,18.40
2022-09-13T17:45:20.985Z,18.29
2022-09-13T17:48:23.981Z,18.34
2022-09-13T17:51:29.998Z,18.32
2022-09-13T17:54:32.876Z,18.36
2022-09-13T17:57:35.465Z,18.37
2022-09-13T18:00:38.426Z,18.40
2022-09-13T18:03:41.680Z,18.34
2022-09-13T18:06:44.445Z,18.25
2022-09-13T18:09:47.682Z,18.22
2022-09-13T18:12:50.188Z,18.19
2022-09-13T18:16:01.455Z,18.10
2022-09-13T18:19:04.073Z,18.02
2022-09-13T18:22:10.733Z,18.01
2022-09-13T18:25:13.274Z,17.99
2022-09-13T18:28:16.113Z,18.02
2022-09-13T18:31:18.622Z,18.04
2022-09-13T18:34:24.680Z,18.00
2022-09-13T18:37:31.706Z,17.93
2022-09-13T18:40:34.701Z,17.93
2022-09-13T18:43:39.264Z,17.90
2022-09-13T18:46:43.156Z,17.87
2022-09-13T18:49:46.755Z,17.86
2022-09-13T18:52:49.510Z,17.81
2022-09-13T18:55:52.049Z,17.72
2022-09-13T18:58:56.477Z,17.64
2022-09-13T19:01:59.219Z,17.58
2022-09-13T19:05:05.343Z,17.52
2022-09-13T19:08:10.451Z,17.43
2022-09-13T19:11:35.219Z,17.38
2022-09-13T19:14:37.047Z,17.30
2022-09-13T19:17:40.231Z,17.21
2022-09-13T19:20:43.036Z,17.12
2022-09-13T19:23:58.799Z,17.04
2022-09-13T19:27:03.072Z,16.95
2022-09-13T19:30:06.474Z,16.90
2022-09-13T19:33:08.951Z,16.82
2022-09-13T19:36:14.601Z,16.72
2022-09-13T19:39:17.450Z,16.64
2022-09-13T19:42:20.241Z,16.65
2022-09-13T19:45:23.359Z,16.63
2022-09-13T19:48:38.086Z,16.67
2022-09-13T19:51:47.597Z,16.73
2022-09-13T19:54:56.285Z,16.82
2022-09-13T19:57:59.457Z,16.92
2022-09-13T20:01:15.049Z,16.98
2022-09-13T20:04:21.101Z,17.07
2022-09-13T20:07:24.655Z,17.15
2022-09-13T20:10:27.735Z,17.20
2022-09-13T20:13:31.134Z,17.24
2022-09-13T20:16:35.944Z,17.28
2022-09-13T20:19:43.545Z,17.35
2022-09-13T20:22:49.027Z,17.43
2022-09-13T20:25:51.505Z,17.46
2022-09-13T20:29:06.052Z,17.49
2022-09-13T20:32:09.468Z,17.55
2022-09-13T20:35:12.200Z,17.60
2022-09-13T20:38:14.739Z,17.63
2022-09-13T20:41:18.657Z,17.64
2022-09-13T20:44:21.200Z,17.71
2022-09-13T20:47:24.005Z,17.72
2022-09-13T20:50:27.052Z,17.70
2022-09-13T20:53:30.152Z,17.68
2022-09-13T20:56:34.609Z,17.76
2022-09-13T20:59:37.707Z,17.75
2022-09-13T21:02:40.249Z,17.68
2022-09-13T21:05:43.380Z,17.65
2022-09-13T21:08:50.411Z,17.67
2022-09-13T21:11:53.293Z,17.80
2022-09-13T21:14:56.022Z,17.73
2022-09-13T21:17:59.136Z,17.74
2022-09-13T21:21:07.971Z,17.76
2022-09-13T21:24:12.256Z,17.78
2022-09-13T21:27:15.527Z,17.85
2022-09-13T21:30:18.288Z,17.88
2022-09-13T21:33:20.783Z,17.94
2022-09-13T21:36:24.935Z,17.93
2022-09-13T21:39:27.484Z,17.92
2022-09-13T21:42:31.495Z,17.85
2022-09-13T21:45:34.143Z,17.85
2022-09-13T21:48:39.785Z,17.90
2022-09-13T21:51:48.274Z,17.93
2022-09-13T21:54:51.014Z,18.01
2022-09-13T21:57:54.143Z,17.99
2022-09-13T22:01:06.883Z,18.01
2022-09-13T22:04:17.329Z,17.83
2022-09-13T22:07:19.854Z,17.76
2022-09-13T22:10:22.583Z,17.95
2022-09-13T22:13:25.587Z,17.74
2022-09-13T22:16:34.486Z,17.52
2022-09-13T22:19:37.083Z,17.38
2022-09-13T22:22:39.987Z,17.24
2022-09-13T22:25:42.608Z,17.17
2022-09-13T22:28:45.720Z,17.08
2022-09-13T22:31:50.157Z,16.98
2022-09-13T22:34:52.887Z,16.98
2022-09-13T22:37:55.576Z,16.84
2022-09-13T22:41:01.391Z,16.72
2022-09-13T22:44:04.247Z,16.58
2022-09-13T22:47:06.970Z,16.44
2022-09-13T22:50:09.781Z,16.39
2022-09-13T22:53:12.752Z,16.24
2022-09-13T22:56:25.010Z,16.15
2022-09-13T22:59:27.951Z,16.11
2022-09-13T23:02:30.476Z,16.02
2022-09-13T23:05:34.166Z,15.93
2022-09-13T23:08:37.412Z,15.87
2022-09-13T23:11:40.769Z,15.85
2022-09-13T23:14:43.299Z,15.77
2022-09-13T23:17:46.602Z,15.71
2022-09-13T23:20:56.451Z,15.64
2022-09-13T23:24:00.653Z,15.58
2022-09-13T23:27:03.215Z,15.61
2022-09-13T23:30:07.210Z,15.52
2022-09-13T23:33:11.764Z,15.51
2022-09-13T23:36:17.066Z,15.42
2022-09-13T23:39:20.356Z,15.36
2022-09-13T23:42:23.726Z,15.31
2022-09-13T23:45:26.271Z,15.22
2022-09-13T23:48:29.724Z,15.17
2022-09-13T23:51:32.275Z,15.15
2022-09-13T23:54:35.037Z,15.08
2022-09-13T23:57:37.451Z,15.05
